createdAt,value
2019-05-09T00:03:09.392Z,80.01
2019-05-09T00:13:10.314Z,79.74
2019-05-09T00:23:13.384Z,78.19
2019-05-09T00:33:14.302Z,77.82
2019-05-09T00:43:16.963Z,76.75
2019-05-09T00:53:18.030Z,76.56
2019-05-09T01:03:18.704Z,78.11
2019-05-09T01:13:19.567Z,78.64
2019-05-09T01:23:20.511Z,82.19
2019-05-09T01:33:21.301Z,78.59
2019-05-09T01:43:24.322Z,79.59
2019-05-09T01:53:25.037Z,79.42
2019-05-09T02:03:27.886Z,82.46
2019-05-09T02:13:28.597Z,85.95
2019-05-09T02:23:29.522Z,82.38
2019-05-09T02:33:30.221Z,79.30
2019-05-09T02:43:31.132Z,79.95
2019-05-09T02:53:33.000Z,81.29
2019-05-09T03:03:33.657Z,84.03
2019-05-09T03:13:34.582Z,85.70
2019-05-09T03:23:38.522Z,83.95
2019-05-09T03:33:40.650Z,83.18
2019-05-09T03:43:41.096Z,81.19
2019-05-09T03:53:53.751Z,81.79
2019-05-09T04:03:54.732Z,83.35
2019-05-09T04:13:58.043Z,82.86
2019-05-09T04:23:58.673Z,82.40
2019-05-09T04:33:59.649Z,81.74
2019-05-09T04:44:00.293Z,81.50
2019-05-09T04:54:00.979Z,81.28
2019-05-09T05:04:01.968Z,74.42
2019-05-09T05:14:02.745Z,73.63
2019-05-09T05:24:03.408Z,75.49
2019-05-09T05:34:04.294Z,76.36
2019-05-09T05:44:04.932Z,70.69
2019-05-09T05:54:07.803Z,69.49
2019-05-09T06:04:08.782Z,70.01
2019-05-09T06:14:11.933Z,70.04
2019-05-09T06:24:12.333Z,66.01
2019-05-09T06:34:13.246Z,64.49
2019-05-09T06:44:17.245Z,65.26
2019-05-09T06:54:17.460Z,67.86
2019-05-09T07:04:18.430Z,71.21
2019-05-09T07:14:28.971Z,71.94
2019-05-09T07:24:23.227Z,73.12
2019-05-09T07:34:24.103Z,73.65
2019-05-09T07:44:24.716Z,74.25
2019-05-09T07:54:28.481Z,74.94
2019-05-09T08:04:29.595Z,70.57
2019-05-09T08:14:30.563Z,72.70
2019-05-09T08:24:31.533Z,73.62
2019-05-09T08:34:32.431Z,72.35
2019-05-09T08:44:33.290Z,69.83
2019-05-09T08:54:34.177Z,71.09
2019-05-09T09:04:38.393Z,67.41
2019-05-09T09:14:39.434Z,67.32
2019-05-09T09:24:41.361Z,66.52
2019-05-09T09:34:42.023Z,66.98
2019-05-09T09:44:42.663Z,66.88
2019-05-09T09:54:43.457Z,64.27
2019-05-09T10:04:44.395Z,66.68
2019-05-09T10:14:45.304Z,67.40
2019-05-09T10:24:47.842Z,67.04
2019-05-09T10:34:49.520Z,73.23
2019-05-09T10:44:50.129Z,77.39
2019-05-09T10:54:50.978Z,72.37
2019-05-09T11:04:51.903Z,69.81
2019-05-09T11:14:55.798Z,69.94
2019-05-09T11:24:57.946Z,72.16
2019-05-09T11:34:58.947Z,74.45
2019-05-09T11:44:59.912Z,75.16
2019-05-09T11:55:00.593Z,74.24
2019-05-09T12:05:01.663Z,68.09
2019-05-09T12:15:08.598Z,70.45
2019-05-09T12:25:09.303Z,71.91
2019-05-09T12:35:10.038Z,72.96
2019-05-09T12:45:12.609Z,73.79
2019-05-09T12:55:14.356Z,75.64
2019-05-09T13:05:15.128Z,75.94
2019-05-09T13:15:18.525Z,74.12
2019-05-09T13:25:20.310Z,74.37
2019-05-09T13:35:21.201Z,75.38
2019-05-09T13:45:22.070Z,77.30
2019-05-09T13:55:24.004Z,75.15
2019-05-09T14:05:25.694Z,72.24
2019-05-09T14:15:27.469Z,71.70
2019-05-09T14:25:29.178Z,65.03
2019-05-09T14:35:30.229Z,64.49
2019-05-09T14:45:31.129Z,61.92
2019-05-09T14:55:32.094Z,65.71
2019-05-09T15:05:32.840Z,70.93
2019-05-09T15:15:33.559Z,69.45
2019-05-09T15:25:34.258Z,68.11
2019-05-09T15:35:35.018Z,73.24
2019-05-09T15:45:36.432Z,73.94
2019-05-09T15:55:37.526Z,66.45
2019-05-09T16:05:38.625Z,62.63
2019-05-09T16:15:39.641Z,74.96
2019-05-09T16:25:40.672Z,75.22
2019-05-09T16:35:41.484Z,77.25
2019-05-09T16:45:42.411Z,72.74
2019-05-09T16:55:43.301Z,72.74
2019-05-09T17:05:44.174Z,71.23
2019-05-09T17:15:45.237Z,69.73
2019-05-09T17:25:47.997Z,71.15
2019-05-09T17:35:48.518Z,70.94
2019-05-09T17:45:49.229Z,70.38
2019-05-09T17:55:50.161Z,77.72
2019-05-09T18:05:51.156Z,77.34
2019-05-09T18:15:51.898Z,73.74
2019-05-09T18:25:52.823Z,78.66
2019-05-09T18:35:53.627Z,80.00
2019-05-09T18:45:54.623Z,81.07
2019-05-09T18:55:55.692Z,80.86
2019-05-09T19:05:56.333Z,79.76
2019-05-09T19:15:58.436Z,79.94
2019-05-09T19:25:59.708Z,78.48
2019-05-09T19:36:00.697Z,82.93
2019-05-09T19:46:02.448Z,82.10
2019-05-09T19:56:03.091Z,81.79
2019-05-09T20:06:04.092Z,83.62
2019-05-09T20:16:04.916Z,81.63
2019-05-09T20:26:05.596Z,80.64
2019-05-09T20:36:06.589Z,83.47
2019-05-09T20:46:10.240Z,82.31
2019-05-09T20:56:10.068Z,83.72
2019-05-09T21:06:13.072Z,84.79
2019-05-09T21:16:14.077Z,84.95
2019-05-09T21:26:18.318Z,85.47
2019-05-09T21:36:20.294Z,79.09
2019-05-09T21:46:21.235Z,78.47
2019-05-09T21:56:22.224Z,78.67
2019-05-09T22:06:23.122Z,79.38
2019-05-09T22:16:23.795Z,77.45
2019-05-09T22:26:24.434Z,83.25
2019-05-09T22:36:25.155Z,88.24
2019-05-09T22:46:25.815Z,88.81
2019-05-09T22:56:30.509Z,89.17
2019-05-09T23:06:31.120Z,89.76
2019-05-09T23:16:34.142Z,89.62
2019-05-09T23:26:34.870Z,87.01
2019-05-09T23:36:37.647Z,84.23
2019-05-09T23:46:38.329Z,84.60
2019-05-09T23:56:39.435Z,88.32
